WEATHER DATA

YESTERDAY
Time Temp. Dewp. Hum. Wind dir Wind speed Wind gust Bar. 1h Prec. 24h Prec.
00:08 17.5 13.6 78 156 0.6 1.7 1013.1 0.1370 0.0000
00:18 17.4 13.5 78 165 0.3 1.7 1013 0.1370 0.0000
00:28 17.3 13.6 79 166 0.6 1.9 1012.9 0.1370 0.0000
00:38 17.2 13.5 79 169 0.8 1.9 1012.9 0.1370 0.0000
00:48 17.2 13.5 79 166 1.1 2.5 1012.9 0.1370 0.0000
00:58 17.2 13.7 80 172 0.8 2.5 1012.7 0.1370 0.1000
01:09 17.1 13.6 80 176 0.8 2.5 1012.5 0.1370 0.1000
01:18 17 13.7 81 178 0.8 1.9 1012.3 0.1370 0.1000
01:28 16.9 13.6 81 177 1.1 3.1 1012.3 0.2740 0.3000
01:39 16.9 13.6 81 175 0.8 1.9 1012.1 0.4110 0.4000
01:50 16.8 13.7 82 178 0.8 2.5 1012.2 0.2740 0.4000
02:00 16.7 13.6 82 180 1.1 2.5 1012 0.2740 0.4000
02:10 16.7 13.8 83 171 1.1 2.5 1011.7 0.2740 0.4000
02:20 16.8 13.9 83 171 1.7 4.4 1011.5 0.1370 0.4000
02:30 16.8 13.9 83 177 1.4 2.8 1011.4 0.1370 0.4000
02:40 16.9 14 83 169 1.1 3.1 1011.1 0.0000 0.4000
02:50 16.9 14 83 171 1.1 4.2 1010.8 0.0000 0.4000
03:01 16.9 14 83 176 1.1 2.8 1010.9 0.0000 0.4000
03:11 16.9 14 83 169 1.1 3.1 1010.8 0.0000 0.4000
03:19 17 14.1 83 176 0.8 2.5 1010.6 0.0000 0.4000
03:30 17 14.1 83 166 1.1 2.8 1010.4 0.0000 0.4000
03:41 17 14.1 83 169 1.1 3.9 1010.3 0.0000 0.4000
03:51 17 14.1 83 173 1.1 3.1 1010 0.0000 0.4000
04:01 17 14.1 83 174 1.1 3.1 1010 0.0000 0.4000
04:11 17 14.1 83 185 1.1 3.1 1009.9 0.0000 0.4000
04:21 17 14.1 83 174 1.1 3.6 1010 0.0000 0.4000
04:31 17 14.1 83 185 1.1 3.1 1010 0.0000 0.4000
04:41 17 14.1 83 168 1.1 3.9 1009.8 0.0000 0.4000
04:52 17.1 14.2 83 180 1.4 2.8 1009.7 0.0000 0.4000
05:01 17.1 14.2 83 192 0.8 2.5 1009.6 0.0000 0.4000
05:11 17.1 14.2 83 189 1.1 2.5 1009.6 0.0000 0.4000
05:22 17.2 14.3 83 204 0.8 2.8 1009.4 0.0000 0.4000
05:32 17.2 14.3 83 203 0.8 1.9 1009.4 0.0000 0.4000
05:42 17.2 14.3 83 199 1.1 2.2 1009.4 0.0000 0.4000
05:51 17.2 14.3 83 196 0.8 2.8 1009.5 0.0000 0.4000
06:02 17.2 14.1 82 183 1.1 1.9 1009.3 0.0000 0.4000
06:12 17.2 14.1 82 197 0.8 1.9 1009.2 0.0000 0.4000
06:22 17.2 14.1 82 192 1.1 2.5 1009.5 0.0000 0.4000
06:32 17.2 14.1 82 190 1.1 2.5 1009.1 0.0000 0.4000
06:42 17.2 14.3 83 204 1.1 2.2 1009 0.0000 0.4000
06:52 17.2 14.3 83 200 1.1 2.2 1009.1 0.0000 0.4000
07:02 17.2 14.3 83 204 1.1 3.6 1009.2 0.0000 0.4000
07:13 17.2 14.3 83 198 1.4 4.7 1009.3 0.0000 0.4000
07:23 17.2 14.3 83 195 1.1 3.9 1009.3 0.0000 0.4000
07:32 17.2 14.5 84 201 1.4 3.1 1009.3 0.0000 0.4000
07:43 17.2 14.5 84 198 1.1 3.1 1009.2 0.0000 0.4000
07:53 17.2 14.5 84 188 1.1 2.5 1009.3 0.0000 0.4000
08:03 17.2 14.5 84 207 1.4 4.7 1009.3 0.0000 0.4000
08:13 17.3 14.6 84 197 1.1 3.1 1009.3 0.0000 0.4000
08:23 17.4 14.7 84 200 1.1 4.4 1009.3 0.0000 0.4000
08:33 17.5 14.8 84 200 0.8 3.9 1009.1 0.0000 0.4000
08:43 17.6 14.9 84 204 1.4 4.4 1009.5 0.0000 0.4000
08:53 17.7 15 84 202 1.4 4.2 1009.4 0.0000 0.4000
09:04 17.7 15 84 210 0.8 2.2 1009.6 0.0000 0.4000
09:13 17.7 15 84 207 1.4 2.8 1009.5 0.0000 0.4000
09:23 17.7 15 84 204 1.1 2.5 1009.5 0.0000 0.4000
09:34 17.7 15 84 207 0.8 2.8 1009.6 0.0000 0.4000
09:44 17.7 15 84 204 1.4 4.7 1009.6 0.0000 0.4000
09:54 17.7 15.1 85 215 1.7 4.4 1009.8 0.0000 0.4000
10:03 17.7 15.1 85 201 1.4 3.9 1009.7 0.0000 0.4000
10:14 17.7 15.1 85 199 1.1 3.1 1009.7 0.0000 0.4000
10:24 17.8 15.4 86 205 1.7 3.1 1009.7 0.0000 0.4000
10:34 17.9 15.7 87 205 1.4 4.2 1009.6 0.0000 0.4000
10:44 17.9 15.7 87 207 1.1 2.8 1009.6 0.0000 0.4000
10:54 17.9 15.7 87 202 1.4 4.2 1009.8 0.0000 0.4000
11:04 17.9 15.7 87 207 1.4 3.6 1009.8 0.0000 0.4000
11:14 17.9 15.7 87 215 1.4 4.4 1010 0.0000 0.4000
11:25 17.9 15.9 88 203 1.4 3.9 1009.9 0.0000 0.4000
11:35 18 16 88 210 1.4 3.9 1009.9 0.0000 0.4000
11:44 18.1 16.1 88 198 1.7 4.7 1009.9 0.0000 0.4000
11:55 18.2 16.2 88 206 1.4 3.6 1010.1 0.0000 0.4000
12:05 18.2 16 87 209 1.1 3.9 1010.2 0.0000 0.4000
12:15 18.3 16.3 88 197 1.1 4.2 1010 0.0000 0.4000
12:32 18.3 16.3 88 196 1.1 2.8 1010.2 0.4110 0.8000
12:42 18.3 16.5 89 193 1.1 2.5 1010.1 0.6850 1.1000
12:53 18.3 16.5 89 196 1.4 5 1010.1 0.6850 1.1000
13:03 18.2 16.4 89 204 1.1 3.6 1010.2 0.6850 1.1000
13:12 18.2 16.4 89 185 1.4 2.8 1010.1 0.6850 1.1000
13:23 18.2 16.5 90 194 1.1 2.8 1010.2 0.6850 1.1000
13:33 18.2 16.5 90 189 1.1 2.8 1010.3 0.2740 1.1000
13:43 18.1 16.4 90 195 1.7 3.9 1010.3 0.0000 1.1000
13:53 18.1 16.4 90 202 1.1 3.9 1010.4 0.0000 1.1000
14:03 18.1 16.4 90 210 0.8 2.5 1010.2 0.0000 1.1000
14:12 18.1 16.4 90 197 1.4 3.9 1010.1 0.0000 1.1000
14:23 18.2 16.5 90 198 1.4 3.9 1010.1 0.0000 1.1000
14:33 18.4 16.9 91 191 1.1 3.1 1010 0.0000 1.1000
14:44 18.5 17 91 197 0.8 3.1 1009.9 0.0000 1.1000
14:53 18.6 17.1 91 192 1.4 3.1 1010 0.0000 1.1000
15:03 18.6 16.9 90 202 0.8 2.8 1009.8 0.0000 1.1000
15:14 18.6 16.9 90 195 0.8 2.8 1009.8 0.0000 1.1000
15:24 18.6 16.9 90 199 1.1 4.2 1010.1 0.0000 1.1000
15:34 18.6 16.9 90 206 1.4 5.3 1010.1 0.0000 1.1000
15:44 18.7 17 90 206 1.1 3.1 1009.8 0.0000 1.1000
15:54 18.7 17 90 195 1.1 2.5 1009.8 0.0000 1.1000
16:04 18.8 17.1 90 190 0.8 1.9 1009.8 0.0000 1.1000
16:14 18.9 17.2 90 205 1.4 3.6 1009.5 0.0000 1.1000
16:24 19.1 17.4 90 193 1.1 3.1 1009.5 0.0000 1.1000
16:34 19.2 17.5 90 195 1.1 3.6 1009.6 0.0000 1.1000
16:44 19.1 17.2 89 202 1.1 3.1 1009.4 0.0000 1.1000
16:54 19 17.1 89 197 0.8 1.9 1009.3 0.0000 1.1000
17:05 18.9 17 89 199 0.6 1.9 1009.3 0.0000 1.1000
17:14 18.9 17 89 194 1.1 2.5 1009.5 0.1370 1.2000
17:24 18.8 17.1 90 191 0.8 3.1 1009 0.2740 1.4000
17:35 18.7 17 90 176 0.8 3.6 1009.2 0.2740 1.4000
17:45 18.7 17 90 185 1.1 2.5 1009.3 0.2740 1.4000
17:54 18.7 17 90 180 0.8 2.8 1009.2 0.2740 1.4000
18:05 18.7 17 90 197 1.1 3.6 1009.5 0.1370 1.4000
18:15 18.7 17 90 202 1.4 4.4 1009.6 0.0000 1.4000
18:27 18.6 16.9 90 187 1.4 3.9 1009.4 0.4110 1.8000
18:36 18.6 16.9 90 205 0.8 3.1 1009.6 1.0970 2.5000
18:44 18.5 17 91 216 1.4 4.2 1009.3 4.2510 5.6000
18:53 18.4 16.9 91 234 0.8 2.5 1009.6 5.7590 7.1000
19:03 18.3 16.8 91 248 0.6 2.2 1009.7 6.4450 7.8000
19:14 18.3 16.8 91 210 0.6 1.7 1009.5 6.8560 8.2000
19:24 18.2 16.7 91 210 0.6 1.1 1009.4 6.3080 8.2000
19:34 18.2 16.7 91 216 0.6 1.4 1009.5 4.2510 8.2000
19:44 18.1 16.6 91 238 0.6 2.2 1009.6 1.3710 8.2000
19:54 18 16.5 91 246 0.8 3.1 1009.9 0.5480 8.2000
20:04 17.7 16.2 91 231 0.8 3.1 1009.8 0.0000 8.2000
20:14 17.4 15.9 91 227 0.8 2.2 1009.5 0.0000 8.2000
20:25 17.1 15.6 91 198 0.6 1.1 1009.4 0.0000 8.2000
20:34 17 15.5 91 198 0.6 1.7 1009.8 0.0000 8.2000
20:44 16.8 15.3 91 194 0.6 1.9 1009.8 0.0000 8.2000
20:55 16.7 15.2 91 192 0.6 1.7 1009.2 0.0000 8.2000
21:05 16.6 15.1 91 197 0.6 1.7 1009.3 0.0000 8.2000
21:15 16.6 15.1 91 204 0.6 1.4 1009.6 0.0000 8.2000
21:24 16.6 15.1 91 199 0.6 1.4 1009.6 0.0000 8.2000
21:35 16.6 15.1 91 202 0.6 1.4 1009.9 0.0000 8.2000
21:45 16.6 15.1 91 194 0.8 1.7 1009.7 0.0000 8.2000
21:55 16.7 15.2 91 197 0.6 1.4 1009.6 0.0000 8.2000
22:05 16.7 15.2 91 194 0.3 1.1 1009.7 0.0000 8.2000
22:15 16.7 15.2 91 210 0.3 1.1 1009.8 0.0000 8.2000
22:25 16.7 15.2 91 205 0.3 1.7 1009.8 0.0000 8.2000
22:35 16.6 15.1 91 193 0.3 0.8 1009.6 0.0000 8.2000
22:46 16.5 15 91 196 0.3 0.8 1009.9 0.0000 8.2000
22:56 16.5 15 91 176 0.3 0.8 1009.4 0.0000 8.2000
23:05 16.4 14.9 91 216 0.3 0.8 1009.7 0.0000 8.2000
23:16 16.3 14.8 91 184 0.3 0.6 1009.6 0.0000 8.2000
23:26 16.3 15 92 196 0.3 0.6 1009.7 0.0000 8.2000
23:36 16.2 14.9 92 213 0.3 0.8 1009.8 0.0000 8.2000
23:46 16.2 14.9 92 167 0.3 0.8 1009.7 0.0000 8.2000
23:56 16.1 14.8 92 180 0.3 0.8 1009.5 0.0000

DAY STATISTIC

2019-08-17
TEMPERATURE
AVERAGE
17.6
HIGH
19.2
16:34
LOW
16.1
23:56
PRESSURE
AVERAGE
1010.0
HIGH
1013.1
00:08
LOW
1009.0
06:42
DEWPOINT
AVERAGE
15.3
HIGH
17.5
16:34
LOW
13.5
00:18
HUMIDITY
AVERAGE
87
HIGH
92
23:26
LOW
78
00:08
WIND SPEED
AVERAGE
1.0
HIGH
1.7
02:20
WIND GUST
AVERAGE
2.8
HIGH
5.3
15:34
WIND DIRECTION
PREVAILING
S
76.8%
N
0.0
NE
0.0
E
0.0
SE
0.7
S
76.8
SW
21.8
W
0.7
NW
0.0
PRECIPITATION
RAIN HOUR
6.9
RAIN DAY
8.2
TEMPERATURE (°C)
LOW
16.1
HIGH
19.2
AVERAGE
17.6
PRESSURE (hpa)
LOW
1009.0
HIGH
1013.1
AVERAGE
1010.0
DEVICE